Verkhne-Penzhino, Russia
Current Conditions -  °F | °C
As of 6:00 AM on Friday 30 Jan 2015 (Local Time) from UHMA Reporting Station
Blowing Snow Blowing Snow  
Wind Chill:   Ceiling: 8000
Heat Index: 21°   Visibility: 6mi
Dew Point: 10°   Wind: 20mph
Humidity: 63%   Direction: 120°ESE
Pressure: 30.33"   Gusts: 29mph
Location:  64.22°N, 164.23°E
Report Text: UHMA 291800Z 12009G13MPS 9999 DRSN BKN080 M06/M12 Q1027 NOSIGRMK QFE766/1022
Loading
Personal Weather Stations






























Interactive Weather Map New forecast layout! Learn more

10-Day Weather Forecast

Advertisements
Track Severe Weather on mobile